Latest Coastal Weather Observations for Friendly Beaches

IDT60701

Issued at 9:52 am EDT Friday 24 February 2017 (issued every 10 minutes, with the page automatically refreshed every 10 minutes)

About coastal observations | Map of coastal stations | Coastal observations for TAS | Marine services | Other Formats
Station Details ID: 092114 Name: FRIENDLY BEACHES Lat: -42.00 Lon: 148.28 Height: 55.0 m
Data from the previous 72 hours. | See also: Recent months at Friendly Beaches
Date/Time
EDT
Temp
°C
Wind Pressure Rain since
9am
mm
Weather Cloud Vis
km
Sea
Height
m
Swell
Dir  Spd
kts
Gust
kts
hPa Trend Height
m
Period
s
Dir
24/09:30am 15.1 SE 7 9 1020.1 - 0.4 - - - - - - -
24/09:00am 15.3 NE 2 6 1020.0 - 3.2 Rain - - - - - -
24/08:30am 15.1 SSW 2 4 1019.9 - 2.8 - - - - - - -
24/08:00am 14.7 WNW 2 3 1019.7 - 2.4 - - - - - - -
24/07:30am 14.7 W 3 4 1019.4 - 2.4 - - - - - - -
24/07:00am 14.7 WSW 1 2 1019.2 - 2.2 - - - - - - -
24/06:30am 14.7 WNW 2 3 1019.2 - 1.8 - - - - - - -
24/06:00am 14.7 S 2 3 1018.8 - 1.4 Rain - - - - - -
24/05:30am 14.8 SSE 2 5 1018.8 - 0.8 - - - - - - -
24/05:00am 15.0 SSE 4 7 1018.8 - 0.4 - - - - - - -
24/04:30am 15.2 WSW 1 4 1018.7 - 0.0 - - - - - - -
24/04:00am 15.7 SSE 6 10 1018.7 - 0.0 - - - - - - -
24/03:30am 15.8 SSE 7 12 1018.8 - 0.0 - - - - - - -
24/03:00am 15.9 SSE 11 15 1018.7 - 0.0 - - - - - - -
24/02:30am 16.1 SSE 10 16 1018.8 - 0.0 - - - - - - -
24/02:00am 16.3 SSE 12 17 1018.7 - 0.0 - - - - - - -
24/01:30am 16.5 SSE 12 17 1018.9 - 0.0 - - - - - - -
24/01:00am 17.1 SE 8 11 1018.8 - 0.0 - - - - - - -
24/12:30am 17.0 SE 10 15 1018.6 - 0.0 - - - - - - -
24/12:00am 17.2 SSE 10 14 1018.5 - 0.0 - - - - - - -
 
Date/Time
EDT
Temp
°C
Wind Pressure Rain since
9am
mm
Weather Cloud Vis
km
Sea
Height
m
Swell
Dir  Spd
kts
Gust
kts
hPa Trend Height
m
Period
s
Dir
23/11:30pm 17.4 SSE 11 15 1018.5 - 0.0 - - - - - - -
23/11:00pm 17.9 SSE 12 18 1018.3 - 0.0 - - - - - - -
23/10:30pm 18.7 SSE 1 3 1017.7 - 0.0 - - - - - - -
23/10:00pm 18.6 WSW 4 8 1017.2 - 0.0 - - - - - - -
23/09:30pm 18.9 SSW 6 14 1016.5 - 0.0 - - - - - - -
23/09:00pm 19.9 SW 9 15 1015.6 - 0.0 - - - - - - -
23/08:30pm 20.1 SW 7 12 1014.7 - 0.0 - - - - - - -
23/08:00pm 19.9 WSW 5 7 1014.1 - 0.0 - - - - - - -
23/07:30pm 20.1 S 3 5 1013.4 - 0.0 - - - - - - -
23/07:00pm 20.9 SE 3 4 1012.7 - 0.0 - - - - - - -
23/06:30pm 22.0 SSE 4 6 1012.4 - 0.0 - - - - - - -
23/06:00pm 20.8 SE 4 6 1011.9 - 0.0 - - - - - - -
23/05:30pm 22.8 NNE 7 10 1011.2 - 0.0 - - - - - - -
23/05:00pm 23.7 NE 5 9 1011.0 - 0.0 - - - - - - -
23/04:30pm 26.7 NNE 8 13 1010.7 - 0.0 - - - - - - -
23/04:00pm 26.6 NNW 4 8 1010.7 - 0.0 - - - - - - -
23/03:30pm 28.0 W 5 11 1010.6 - 0.0 - - - - - - -
23/03:00pm 27.7 WNW 7 15 1010.7 - 0.0 - - - - - - -
23/02:30pm 26.5 WNW 8 15 1010.6 - 0.0 - - - - - - -
23/02:00pm 26.6 WNW 8 17 1010.6 - 0.0 - - - - - - -
23/01:30pm 26.1 NW 11 19 1010.7 - 0.0 - - - - - - -
23/01:00pm 25.5 WNW 11 18 1010.7 - 0.0 - - - - - - -
23/12:30pm 24.8 W 10 18 1010.7 - 0.0 - - - - - - -
23/12:00pm 24.5 WNW 9 17 1010.5 - 0.0 - - - - - - -
23/11:30am 23.7 WNW 12 21 1010.2 - 0.0 - - - - - - -
23/11:00am 22.5 WNW 14 24 1009.8 - 0.0 - - - - - - -
23/10:30am 22.1 WNW 15 25 1009.9 - 0.0 - - - - - - -
23/10:00am 21.6 WNW 15 28 1009.6 - 0.0 - - - - - - -
23/09:31am 21.0 WNW 15 27 1009.6 - 0.0 - - - - - - -
23/09:30am 21.0 WNW 15 25 1009.6 - 0.0 - - - - - - -
23/09:00am 20.7 WNW 12 23 1009.4 - 0.0 - - - - - - -
23/08:30am 20.3 W 12 21 1009.3 - 0.0 - - - - - - -
23/08:00am 19.8 WNW 12 22 1008.4 - 0.0 - - - - - - -
23/07:30am 19.0 WSW 3 5 1008.2 - 0.0 - - - - - - -
23/07:00am 17.3 NW 4 6 1007.5 - 0.0 - - - - - - -
23/06:30am 18.1 SW 3 6 1006.8 - 0.0 - - - - - - -
23/06:00am 19.0 N 4 8 1006.2 - 0.0 - - - - - - -
23/05:30am 18.6 N 4 7 1006.7 - 0.0 - - - - - - -
23/05:00am 18.8 N 5 7 1006.5 - 0.0 - - - - - - -
23/04:30am 19.3 N 12 18 1006.7 - 0.0 - - - - - - -
23/04:00am 19.6 N 12 20 1006.8 - 0.0 - - - - - - -
23/03:30am 19.7 N 13 23 1006.4 - 0.0 - - - - - - -
23/03:00am 19.3 N 15 25 1006.9 - 0.0 - - - - - - -
23/02:30am 18.6 N 10 18 1007.3 - 0.0 - - - - - - -
23/02:00am 17.8 NNE 11 18 1008.1 - 0.0 - - - - - - -
23/01:30am 16.9 NNE 10 15 1008.6 - 0.0 - - - - - - -
23/01:00am 16.9 NNE 11 16 1009.6 - 0.0 - - - - - - -
23/12:30am 17.5 NNE 10 17 1009.9 - 0.0 - - - - - - -
23/12:00am 16.6 NNE 5 9 1010.2 - 0.0 - - - - - - -
 
Date/Time
EDT
Temp
°C
Wind Pressure Rain since
9am
mm
Weather Cloud Vis
km
Sea
Height
m
Swell
Dir  Spd
kts
Gust
kts
hPa Trend Height
m
Period
s
Dir
22/11:30pm 17.2 NNE 4 8 1010.7 - 0.0 - - - - - - -
22/11:00pm 17.8 N 6 12 1011.3 - 0.0 - - - - - - -
22/10:30pm 17.6 NNE 7 12 1011.3 - 0.0 - - - - - - -
22/10:00pm 17.9 NNE 9 13 1011.6 - 0.0 - - - - - - -
22/09:30pm 18.3 NNE 9 15 1011.4 - 0.0 - - - - - - -
22/09:00pm 18.7 NNE 9 16 1011.8 - 0.0 - - - - - - -
22/08:30pm 18.7 NNE 8 13 1011.7 - 0.0 - - - - - - -
22/08:00pm 18.9 NNE 9 16 1011.6 - 0.0 - - - - - - -
22/07:30pm 19.4 NNE 11 21 1011.5 - 0.0 - - - - - - -
22/07:00pm 20.2 NNE 12 20 1011.6 - 0.0 - - - - - - -
22/06:31pm 20.3 N 15 26 1011.5 - 0.0 - - - - - - -
22/06:30pm 20.2 N 14 26 1011.5 - 0.0 - - - - - - -
22/06:17pm 20.6 N 15 28 1011.5 - 0.0 - - - - - - -
22/06:00pm 20.8 N 14 24 1011.6 - 0.0 - - - - - - -
22/05:30pm 21.1 NNE 14 25 1012.1 - 0.0 - - - - - - -
22/05:01pm 22.0 NNE 16 26 1012.2 - 0.0 - - - - - - -
22/05:00pm 22.0 NNE 17 26 1012.2 - 0.0 - - - - - - -
22/04:36pm 22.0 NNE 15 26 1012.6 - 0.0 - - - - - - -
22/04:30pm 22.6 NNE 14 20 1012.6 - 0.0 - - - - - - -
22/04:00pm 23.0 NNE 16 23 1013.0 - 0.0 - - - - - - -
22/03:30pm 22.9 NNE 17 28 1013.4 - 0.0 - - - - - - -
22/03:00pm 23.1 NNE 15 29 1013.8 - 0.0 - - - - - - -
22/02:35pm 23.3 NNE 15 25 1014.1 - 0.0 - - - - - - -
22/02:30pm 23.2 NNE 13 21 1014.2 - 0.0 - - - - - - -
22/02:00pm 23.4 NNE 13 23 1014.8 - 0.0 - - - - - - -
22/01:50pm 22.3 N 15 25 1014.9 - 0.0 - - - - - - -
22/01:30pm 23.4 NNE 14 22 1014.8 - 0.0 - - - - - - -
22/01:00pm 23.5 NNE 13 21 1015.3 - 0.0 - - - - - - -
22/12:30pm 22.2 NNE 13 19 1015.6 - 0.0 - - - - - - -
22/12:00pm 22.6 NNE 9 16 1016.2 - 0.0 - - - - - - -
22/11:30am 20.6 NE 8 13 1016.7 - 0.0 - - - - - - -
22/11:00am 20.7 NNE 10 16 1017.0 - 0.0 - - - - - - -
22/10:30am 18.6 NNW 7 13 1017.4 - 0.0 - - - - - - -
22/10:00am 19.0 NNE 6 8 1017.4 - 0.0 - - - - - - -
22/09:30am 17.5 N 5 9 1017.5 - 0.0 - - - - - - -
22/09:00am 17.2 N 5 8 1017.4 - 0.0 - - - - - - -
22/08:30am 15.4 SW 1 3 1017.4 - 0.0 - - - - - - -
22/08:00am 14.7 NNE 3 9 1017.3 - 0.0 - - - - - - -
22/07:30am 14.3 N 4 9 1017.3 - 0.0 - - - - - - -
22/07:00am 13.4 N 5 8 1017.1 - 0.0 - - - - - - -
22/06:30am 13.3 N 6 9 1017.0 - 0.0 - - - - - - -
22/06:00am 13.6 N 6 8 1017.1 - 0.0 - - - - - - -
22/05:30am 13.7 N 5 7 1017.3 - 0.0 - - - - - - -
22/05:00am 13.7 N 4 6 1017.4 - 0.0 - - - - - - -
22/04:30am 14.2 N 5 6 1017.7 - 0.0 - - - - - - -
22/04:00am 14.4 N 4 6 1017.8 - 0.0 - - - - - - -
22/03:30am 15.1 NNE 6 9 1018.0 - 0.0 - - - - - - -
22/03:00am 15.8 NE 8 13 1018.1 - 0.0 - - - - - - -
22/02:30am 15.9 NE 7 11 1018.6 - 0.0 - - - - - - -
22/02:00am 15.6 NE 10 15 1018.5 - 0.0 - - - - - - -
22/01:30am 15.7 NE 7 12 1019.1 - 0.0 - - - - - - -
22/01:00am 15.6 NE 8 13 1019.3 - 0.0 - - - - - - -
22/12:30am 15.6 NE 7 13 1019.7 - 0.0 - - - - - - -
22/12:00am 15.5 NE 8 11 1019.8 - 0.0 - - - - - - -
 
Date/Time
EDT
Temp
°C
Wind Pressure Rain since
9am
mm
Weather Cloud Vis
km
Sea
Height
m
Swell
Dir  Spd
kts
Gust
kts
hPa Trend Height
m
Period
s
Dir
21/11:30pm 15.6 NE 8 14 1019.6 - 0.0 - - - - - - -
21/11:00pm 15.7 NE 9 13 1019.6 - 0.0 - - - - - - -
21/10:30pm 15.8 NE 9 13 1019.8 - 0.0 - - - - - - -
21/10:00pm 15.8 NE 9 13 1019.8 - 0.0 - - - - - - -
21/09:30pm 15.9 NE 7 12 1019.8 - 0.0 - - - - - - -
21/09:00pm 15.8 NNE 8 13 1019.6 - 0.0 - - - - - - -
21/08:30pm 15.8 NE 8 14 1019.2 - 0.0 - - - - - - -
21/08:00pm 15.2 NE 7 11 1018.7 - 0.0 - - - - - - -
21/07:30pm 15.8 NE 8 13 1018.3 - 0.0 - - - - - - -
21/07:00pm 16.9 NE 8 13 1018.1 - 0.0 - - - - - - -
21/06:30pm 17.7 NE 9 15 1017.9 - 0.0 - - - - - - -
21/06:00pm 18.3 NE 10 16 1017.8 - 0.0 - - - - - - -
21/05:30pm 18.9 NNE 9 14 1017.5 - 0.0 - - - - - - -
21/05:00pm 19.1 NE 10 16 1017.4 - 0.0 - - - - - - -
21/04:30pm 19.6 NE 9 13 1017.4 - 0.0 - - - - - - -
21/04:00pm 19.8 NE 8 14 1017.4 - 0.0 - - - - - - -
21/03:30pm 19.3 ENE 8 11 1017.5 - 0.0 - - - - - - -
21/03:00pm 19.6 ENE 8 11 1017.6 - 0.0 - - - - - - -
21/02:30pm 19.5 ENE 7 11 1017.7 - 0.0 - - - - - - -
21/02:00pm 19.4 ENE 8 11 1017.7 - 0.0 - - - - - - -
21/01:30pm 20.3 ESE 9 13 1017.4 - 0.0 - - - - - - -
21/01:00pm 20.0 ESE 9 12 1017.3 - 0.0 - - - - - - -
21/12:30pm 20.3 ESE 9 12 1017.4 - 0.0 - - - - - - -
21/12:00pm 19.0 SE 3 6 1017.3 - 0.0 - - - - - - -
21/11:30am 18.2 W 2 5 1017.6 - 0.0 - - - - - - -
21/11:00am 17.0 WSW 5 8 1017.7 - 0.0 - - - - - - -
21/10:30am 17.0 WSW 6 11 1017.9 - 0.0 - - - - - - -
21/10:00am 16.1 WSW 7 13 1017.7 - 0.0 - - - - - - -

Other Formats:

Comma delimited format used in spreadsheet applications
http://www.bom.gov.au/fwo/IDT60701/IDT60701.94987.axf

JavaScript Object Notation format (JSON) in row-major order
http://www.bom.gov.au/fwo/IDT60701/IDT60701.94987.json